sensor_id;sensor_type;location;lat;lon;timestamp;P1;durP1;ratioP1;P2;durP2;ratioP2
38717;SDS011;24468;52.128;9.278;2023-05-14T00:00:49;8.02;;;4.05;;
38717;SDS011;24468;52.128;9.278;2023-05-14T00:03:15;3.78;;;3.38;;
38717;SDS011;24468;52.128;9.278;2023-05-14T00:05:40;6.63;;;3.63;;
38717;SDS011;24468;52.128;9.278;2023-05-14T00:08:06;3.60;;;3.25;;
38717;SDS011;24468;52.128;9.278;2023-05-14T00:10:31;3.78;;;3.47;;
38717;SDS011;24468;52.128;9.278;2023-05-14T00:12:57;6.68;;;3.63;;
38717;SDS011;24468;52.128;9.278;2023-05-14T00:15:22;4.95;;;3.40;;
38717;SDS011;24468;52.128;9.278;2023-05-14T00:17:48;6.10;;;3.65;;
38717;SDS011;24468;52.128;9.278;2023-05-14T00:20:14;7.70;;;4.03;;
38717;SDS011;24468;52.128;9.278;2023-05-14T00:22:39;4.32;;;3.90;;
38717;SDS011;24468;52.128;9.278;2023-05-14T00:25:05;4.82;;;2.95;;
38717;SDS011;24468;52.128;9.278;2023-05-14T00:27:32;6.45;;;3.30;;
38717;SDS011;24468;52.128;9.278;2023-05-14T00:29:59;4.00;;;3.60;;
38717;SDS011;24468;52.128;9.278;2023-05-14T00:32:24;3.75;;;3.25;;
38717;SDS011;24468;52.128;9.278;2023-05-14T00:34:50;4.22;;;3.35;;
38717;SDS011;24468;52.128;9.278;2023-05-14T00:37:15;4.90;;;3.78;;
38717;SDS011;24468;52.128;9.278;2023-05-14T00:39:41;6.60;;;3.05;;
38717;SDS011;24468;52.128;9.278;2023-05-14T00:42:06;5.78;;;3.40;;
38717;SDS011;24468;52.128;9.278;2023-05-14T00:44:32;3.53;;;3.22;;
38717;SDS011;24468;52.128;9.278;2023-05-14T00:46:58;3.88;;;3.47;;
38717;SDS011;24468;52.128;9.278;2023-05-14T00:49:24;3.72;;;3.40;;
38717;SDS011;24468;52.128;9.278;2023-05-14T00:51:50;3.63;;;3.33;;
38717;SDS011;24468;52.128;9.278;2023-05-14T00:54:16;5.00;;;3.70;;
38717;SDS011;24468;52.128;9.278;2023-05-14T00:56:44;5.72;;;3.45;;
38717;SDS011;24468;52.128;9.278;2023-05-14T00:59:10;11.68;;;3.72;;
38717;SDS011;24468;52.128;9.278;2023-05-14T01:01:36;6.72;;;3.72;;
38717;SDS011;24468;52.128;9.278;2023-05-14T01:04:02;5.43;;;3.55;;
38717;SDS011;24468;52.128;9.278;2023-05-14T01:09:31;5.80;;;3.28;;
38717;SDS011;24468;52.128;9.278;2023-05-14T01:15:09;7.07;;;4.60;;
38717;SDS011;24468;52.128;9.278;2023-05-14T01:17:42;9.88;;;3.95;;
38717;SDS011;24468;52.128;9.278;2023-05-14T01:20:18;5.50;;;3.90;;
38717;SDS011;24468;52.128;9.278;2023-05-14T01:22:44;4.18;;;3.53;;
38717;SDS011;24468;52.128;9.278;2023-05-14T01:25:10;5.68;;;3.40;;
38717;SDS011;24468;52.128;9.278;2023-05-14T01:27:41;3.33;;;3.00;;
38717;SDS011;24468;52.128;9.278;2023-05-14T01:30:39;6.28;;;3.15;;
38717;SDS011;24468;52.128;9.278;2023-05-14T01:33:21;3.85;;;3.25;;
38717;SDS011;24468;52.128;9.278;2023-05-14T01:35:51;4.95;;;2.97;;
38717;SDS011;24468;52.128;9.278;2023-05-14T01:38:18;4.78;;;3.60;;
38717;SDS011;24468;52.128;9.278;2023-05-14T01:40:45;3.83;;;3.45;;
38717;SDS011;24468;52.128;9.278;2023-05-14T01:43:12;6.35;;;4.22;;
38717;SDS011;24468;52.128;9.278;2023-05-14T01:45:39;4.95;;;3.72;;
38717;SDS011;24468;52.128;9.278;2023-05-14T01:48:06;5.82;;;3.58;;
38717;SDS011;24468;52.128;9.278;2023-05-14T01:50:31;4.90;;;3.33;;
38717;SDS011;24468;52.128;9.278;2023-05-14T01:52:57;4.53;;;3.03;;
38717;SDS011;24468;52.128;9.278;2023-05-14T01:55:23;4.68;;;4.15;;
38717;SDS011;24468;52.128;9.278;2023-05-14T01:57:49;3.30;;;3.00;;
38717;SDS011;24468;52.128;9.278;2023-05-14T02:00:16;3.95;;;3.63;;
38717;SDS011;24468;52.128;9.278;2023-05-14T02:02:42;7.03;;;4.47;;
38717;SDS011;24468;52.128;9.278;2023-05-14T02:05:09;4.03;;;3.70;;
38717;SDS011;24468;52.128;9.278;2023-05-14T02:07:35;7.15;;;3.15;;
38717;SDS011;24468;52.128;9.278;2023-05-14T02:10:01;4.95;;;3.80;;
38717;SDS011;24468;52.128;9.278;2023-05-14T02:12:26;4.38;;;3.40;;
38717;SDS011;24468;52.128;9.278;2023-05-14T02:14:52;4.15;;;3.80;;
38717;SDS011;24468;52.128;9.278;2023-05-14T02:17:17;4.47;;;3.78;;
38717;SDS011;24468;52.128;9.278;2023-05-14T02:19:44;3.55;;;3.17;;
38717;SDS011;24468;52.128;9.278;2023-05-14T02:22:10;4.65;;;4.00;;
38717;SDS011;24468;52.128;9.278;2023-05-14T02:24:36;5.53;;;3.53;;
38717;SDS011;24468;52.128;9.278;2023-05-14T02:27:01;4.53;;;3.95;;
38717;SDS011;24468;52.128;9.278;2023-05-14T02:29:27;7.68;;;4.35;;
38717;SDS011;24468;52.128;9.278;2023-05-14T02:31:52;4.30;;;3.90;;
38717;SDS011;24468;52.128;9.278;2023-05-14T02:34:18;4.20;;;3.83;;
38717;SDS011;24468;52.128;9.278;2023-05-14T02:36:43;4.43;;;3.83;;
38717;SDS011;24468;52.128;9.278;2023-05-14T02:39:09;4.78;;;4.15;;
38717;SDS011;24468;52.128;9.278;2023-05-14T02:41:35;5.07;;;4.03;;
38717;SDS011;24468;52.128;9.278;2023-05-14T02:44:00;4.25;;;3.88;;
38717;SDS011;24468;52.128;9.278;2023-05-14T02:46:29;5.93;;;3.97;;
38717;SDS011;24468;52.128;9.278;2023-05-14T02:48:55;5.75;;;4.25;;
38717;SDS011;24468;52.128;9.278;2023-05-14T02:51:21;3.92;;;3.50;;
38717;SDS011;24468;52.128;9.278;2023-05-14T02:53:47;8.98;;;4.22;;
38717;SDS011;24468;52.128;9.278;2023-05-14T02:56:12;5.20;;;3.60;;
38717;SDS011;24468;52.128;9.278;2023-05-14T02:58:38;6.45;;;3.42;;
38717;SDS011;24468;52.128;9.278;2023-05-14T03:01:03;4.53;;;3.85;;
38717;SDS011;24468;52.128;9.278;2023-05-14T03:03:29;4.97;;;3.80;;
38717;SDS011;24468;52.128;9.278;2023-05-14T03:05:55;5.47;;;3.20;;
38717;SDS011;24468;52.128;9.278;2023-05-14T03:08:21;4.50;;;3.70;;
38717;SDS011;24468;52.128;9.278;2023-05-14T03:10:46;4.40;;;3.63;;
38717;SDS011;24468;52.128;9.278;2023-05-14T03:13:12;5.10;;;3.67;;
38717;SDS011;24468;52.128;9.278;2023-05-14T03:15:41;5.88;;;3.58;;
38717;SDS011;24468;52.128;9.278;2023-05-14T03:18:07;7.03;;;3.80;;
38717;SDS011;24468;52.128;9.278;2023-05-14T03:20:33;4.20;;;3.80;;
38717;SDS011;24468;52.128;9.278;2023-05-14T03:22:59;5.72;;;4.45;;
38717;SDS011;24468;52.128;9.278;2023-05-14T03:25:24;4.40;;;3.88;;
38717;SDS011;24468;52.128;9.278;2023-05-14T03:27:50;3.90;;;3.25;;
38717;SDS011;24468;52.128;9.278;2023-05-14T03:30:15;6.55;;;3.97;;
38717;SDS011;24468;52.128;9.278;2023-05-14T03:32:41;5.38;;;4.63;;
38717;SDS011;24468;52.128;9.278;2023-05-14T03:35:07;4.22;;;3.83;;
38717;SDS011;24468;52.128;9.278;2023-05-14T03:37:33;6.60;;;4.05;;
38717;SDS011;24468;52.128;9.278;2023-05-14T03:39:58;5.15;;;3.53;;
38717;SDS011;24468;52.128;9.278;2023-05-14T03:42:24;3.83;;;3.22;;
38717;SDS011;24468;52.128;9.278;2023-05-14T03:44:49;5.03;;;3.42;;
38717;SDS011;24468;52.128;9.278;2023-05-14T03:47:15;5.65;;;3.47;;
38717;SDS011;24468;52.128;9.278;2023-05-14T03:49:40;10.45;;;3.10;;
38717;SDS011;24468;52.128;9.278;2023-05-14T03:52:06;3.55;;;3.22;;
38717;SDS011;24468;52.128;9.278;2023-05-14T03:54:31;3.38;;;2.90;;
38717;SDS011;24468;52.128;9.278;2023-05-14T03:56:59;5.07;;;3.08;;
38717;SDS011;24468;52.128;9.278;2023-05-14T03:59:25;5.50;;;3.22;;
38717;SDS011;24468;52.128;9.278;2023-05-14T04:01:51;4.78;;;2.97;;
38717;SDS011;24468;52.128;9.278;2023-05-14T04:04:17;4.28;;;3.28;;
38717;SDS011;24468;52.128;9.278;2023-05-14T04:06:42;5.68;;;3.97;;
38717;SDS011;24468;52.128;9.278;2023-05-14T04:09:08;3.78;;;3.35;;
38717;SDS011;24468;52.128;9.278;2023-05-14T04:11:34;6.07;;;3.78;;
38717;SDS011;24468;52.128;9.278;2023-05-14T04:14:01;4.63;;;3.10;;
38717;SDS011;24468;52.128;9.278;2023-05-14T04:16:27;4.57;;;3.30;;
38717;SDS011;24468;52.128;9.278;2023-05-14T04:18:52;4.45;;;3.65;;
38717;SDS011;24468;52.128;9.278;2023-05-14T04:21:18;4.20;;;3.33;;
38717;SDS011;24468;52.128;9.278;2023-05-14T04:23:43;3.95;;;3.65;;
38717;SDS011;24468;52.128;9.278;2023-05-14T04:26:09;6.05;;;3.92;;
38717;SDS011;24468;52.128;9.278;2023-05-14T04:28:34;4.57;;;3.78;;
38717;SDS011;24468;52.128;9.278;2023-05-14T04:31:00;4.15;;;3.75;;
38717;SDS011;24468;52.128;9.278;2023-05-14T04:33:26;5.75;;;3.78;;
38717;SDS011;24468;52.128;9.278;2023-05-14T04:35:51;4.18;;;3.40;;
38717;SDS011;24468;52.128;9.278;2023-05-14T04:38:17;8.13;;;3.53;;
38717;SDS011;24468;52.128;9.278;2023-05-14T04:40:43;7.38;;;3.97;;
38717;SDS011;24468;52.128;9.278;2023-05-14T04:43:08;3.95;;;3.53;;
38717;SDS011;24468;52.128;9.278;2023-05-14T04:45:34;6.43;;;3.78;;
38717;SDS011;24468;52.128;9.278;2023-05-14T04:48:00;4.40;;;3.50;;
38717;SDS011;24468;52.128;9.278;2023-05-14T04:50:27;3.92;;;3.63;;
38717;SDS011;24468;52.128;9.278;2023-05-14T04:52:53;4.20;;;3.78;;
38717;SDS011;24468;52.128;9.278;2023-05-14T04:55:19;4.80;;;4.30;;
38717;SDS011;24468;52.128;9.278;2023-05-14T04:57:45;6.57;;;4.38;;
38717;SDS011;24468;52.128;9.278;2023-05-14T05:00:11;4.97;;;4.35;;
38717;SDS011;24468;52.128;9.278;2023-05-14T05:02:37;5.65;;;4.43;;
38717;SDS011;24468;52.128;9.278;2023-05-14T05:05:03;5.28;;;4.60;;
38717;SDS011;24468;52.128;9.278;2023-05-14T05:07:29;4.38;;;3.97;;
38717;SDS011;24468;52.128;9.278;2023-05-14T05:09:54;5.70;;;5.20;;
38717;SDS011;24468;52.128;9.278;2023-05-14T05:12:20;8.05;;;4.47;;
38717;SDS011;24468;52.128;9.278;2023-05-14T05:14:45;4.57;;;4.10;;
38717;SDS011;24468;52.128;9.278;2023-05-14T05:17:11;6.07;;;4.53;;
38717;SDS011;24468;52.128;9.278;2023-05-14T05:19:36;8.10;;;4.82;;
38717;SDS011;24468;52.128;9.278;2023-05-14T05:22:03;5.75;;;5.22;;
38717;SDS011;24468;52.128;9.278;2023-05-14T05:24:28;6.22;;;4.95;;
38717;SDS011;24468;52.128;9.278;2023-05-14T05:26:54;6.88;;;4.82;;
38717;SDS011;24468;52.128;9.278;2023-05-14T05:29:20;4.82;;;4.35;;
38717;SDS011;24468;52.128;9.278;2023-05-14T05:31:47;6.10;;;4.68;;
38717;SDS011;24468;52.128;9.278;2023-05-14T05:34:13;4.82;;;4.35;;
38717;SDS011;24468;52.128;9.278;2023-05-14T05:36:39;6.90;;;4.43;;
38717;SDS011;24468;52.128;9.278;2023-05-14T05:39:05;5.70;;;4.15;;
38717;SDS011;24468;52.128;9.278;2023-05-14T05:41:30;5.22;;;4.72;;
38717;SDS011;24468;52.128;9.278;2023-05-14T05:43:56;6.05;;;5.38;;
38717;SDS011;24468;52.128;9.278;2023-05-14T05:46:21;5.55;;;4.63;;
38717;SDS011;24468;52.128;9.278;2023-05-14T05:48:47;7.57;;;4.57;;
38717;SDS011;24468;52.128;9.278;2023-05-14T05:51:12;5.53;;;4.97;;
38717;SDS011;24468;52.128;9.278;2023-05-14T05:53:38;7.43;;;4.65;;
38717;SDS011;24468;52.128;9.278;2023-05-14T05:56:04;5.88;;;5.28;;
38717;SDS011;24468;52.128;9.278;2023-05-14T05:58:30;5.47;;;4.97;;
38717;SDS011;24468;52.128;9.278;2023-05-14T06:00:55;5.68;;;4.78;;
38717;SDS011;24468;52.128;9.278;2023-05-14T06:03:22;6.07;;;5.13;;
38717;SDS011;24468;52.128;9.278;2023-05-14T06:05:47;7.82;;;5.20;;
38717;SDS011;24468;52.128;9.278;2023-05-14T06:08:13;6.18;;;5.15;;
38717;SDS011;24468;52.128;9.278;2023-05-14T06:10:38;5.65;;;5.07;;
38717;SDS011;24468;52.128;9.278;2023-05-14T06:13:04;5.63;;;4.25;;
38717;SDS011;24468;52.128;9.278;2023-05-14T06:15:30;5.05;;;4.55;;
38717;SDS011;24468;52.128;9.278;2023-05-14T06:17:56;5.35;;;4.88;;
38717;SDS011;24468;52.128;9.278;2023-05-14T06:20:22;6.03;;;4.35;;
38717;SDS011;24468;52.128;9.278;2023-05-14T06:22:47;6.18;;;4.53;;
38717;SDS011;24468;52.128;9.278;2023-05-14T06:25:13;7.45;;;4.95;;
38717;SDS011;24468;52.128;9.278;2023-05-14T06:27:38;4.40;;;4.00;;
38717;SDS011;24468;52.128;9.278;2023-05-14T06:30:04;5.60;;;4.50;;
38717;SDS011;24468;52.128;9.278;2023-05-14T06:32:31;4.13;;;3.75;;
38717;SDS011;24468;52.128;9.278;2023-05-14T06:34:56;6.43;;;4.22;;
38717;SDS011;24468;52.128;9.278;2023-05-14T06:37:22;4.88;;;4.00;;
38717;SDS011;24468;52.128;9.278;2023-05-14T06:39:47;4.30;;;3.90;;
38717;SDS011;24468;52.128;9.278;2023-05-14T06:42:17;5.15;;;3.97;;
38717;SDS011;24468;52.128;9.278;2023-05-14T06:44:43;8.55;;;4.22;;
38717;SDS011;24468;52.128;9.278;2023-05-14T06:47:09;4.03;;;3.30;;
38717;SDS011;24468;52.128;9.278;2023-05-14T06:49:35;3.50;;;3.20;;
38717;SDS011;24468;52.128;9.278;2023-05-14T06:52:01;4.68;;;4.18;;
38717;SDS011;24468;52.128;9.278;2023-05-14T06:54:27;4.30;;;3.85;;
38717;SDS011;24468;52.128;9.278;2023-05-14T06:56:53;4.60;;;3.72;;
38717;SDS011;24468;52.128;9.278;2023-05-14T06:59:19;3.40;;;3.10;;
38717;SDS011;24468;52.128;9.278;2023-05-14T07:01:44;6.03;;;3.80;;
38717;SDS011;24468;52.128;9.278;2023-05-14T07:04:10;5.57;;;3.88;;
38717;SDS011;24468;52.128;9.278;2023-05-14T07:06:36;3.85;;;3.38;;
38717;SDS011;24468;52.128;9.278;2023-05-14T07:09:01;4.07;;;3.67;;
38717;SDS011;24468;52.128;9.278;2023-05-14T07:11:27;3.55;;;3.25;;
38717;SDS011;24468;52.128;9.278;2023-05-14T07:13:53;3.85;;;3.55;;
38717;SDS011;24468;52.128;9.278;2023-05-14T07:16:19;5.28;;;3.70;;
38717;SDS011;24468;52.128;9.278;2023-05-14T07:18:44;4.32;;;3.40;;
38717;SDS011;24468;52.128;9.278;2023-05-14T07:21:10;3.47;;;3.10;;
38717;SDS011;24468;52.128;9.278;2023-05-14T07:23:36;3.53;;;3.22;;
38717;SDS011;24468;52.128;9.278;2023-05-14T07:26:05;3.85;;;3.42;;
38717;SDS011;24468;52.128;9.278;2023-05-14T07:28:31;3.78;;;3.30;;
38717;SDS011;24468;52.128;9.278;2023-05-14T07:30:57;3.15;;;2.90;;
38717;SDS011;24468;52.128;9.278;2023-05-14T07:33:23;4.70;;;3.20;;
38717;SDS011;24468;52.128;9.278;2023-05-14T07:35:49;3.00;;;2.80;;
38717;SDS011;24468;52.128;9.278;2023-05-14T07:38:16;4.53;;;2.78;;
38717;SDS011;24468;52.128;9.278;2023-05-14T07:40:42;5.10;;;2.97;;
38717;SDS011;24468;52.128;9.278;2023-05-14T07:43:08;2.88;;;2.67;;
38717;SDS011;24468;52.128;9.278;2023-05-14T07:45:35;3.25;;;2.90;;
38717;SDS011;24468;52.128;9.278;2023-05-14T07:48:01;3.72;;;2.67;;
38717;SDS011;24468;52.128;9.278;2023-05-14T07:50:27;4.15;;;2.78;;
38717;SDS011;24468;52.128;9.278;2023-05-14T07:52:52;3.60;;;3.13;;
38717;SDS011;24468;52.128;9.278;2023-05-14T07:55:18;3.40;;;3.10;;
38717;SDS011;24468;52.128;9.278;2023-05-14T07:57:43;4.43;;;2.72;;
38717;SDS011;24468;52.128;9.278;2023-05-14T08:00:10;3.40;;;3.03;;
38717;SDS011;24468;52.128;9.278;2023-05-14T08:02:36;3.67;;;3.00;;
38717;SDS011;24468;52.128;9.278;2023-05-14T08:05:02;3.03;;;2.55;;
38717;SDS011;24468;52.128;9.278;2023-05-14T08:07:28;2.88;;;2.60;;
38717;SDS011;24468;52.128;9.278;2023-05-14T08:09:54;3.63;;;2.65;;
38717;SDS011;24468;52.128;9.278;2023-05-14T08:12:20;3.67;;;3.10;;
38717;SDS011;24468;52.128;9.278;2023-05-14T08:14:46;3.53;;;2.90;;
38717;SDS011;24468;52.128;9.278;2023-05-14T08:17:11;3.35;;;2.60;;
38717;SDS011;24468;52.128;9.278;2023-05-14T08:19:40;3.03;;;2.67;;
38717;SDS011;24468;52.128;9.278;2023-05-14T08:22:05;8.07;;;3.42;;
38717;SDS011;24468;52.128;9.278;2023-05-14T08:24:31;3.28;;;2.88;;
38717;SDS011;24468;52.128;9.278;2023-05-14T08:26:56;4.70;;;2.88;;
38717;SDS011;24468;52.128;9.278;2023-05-14T08:29:22;5.43;;;2.70;;
38717;SDS011;24468;52.128;9.278;2023-05-14T08:31:48;2.83;;;2.40;;
38717;SDS011;24468;52.128;9.278;2023-05-14T08:34:15;2.28;;;2.10;;
38717;SDS011;24468;52.128;9.278;2023-05-14T08:36:40;3.10;;;2.72;;
38717;SDS011;24468;52.128;9.278;2023-05-14T08:39:06;2.60;;;2.40;;
38717;SDS011;24468;52.128;9.278;2023-05-14T08:41:31;2.95;;;2.70;;
38717;SDS011;24468;52.128;9.278;2023-05-14T08:46:43;1.95;;;1.80;;
38717;SDS011;24468;52.128;9.278;2023-05-14T08:49:13;2.70;;;2.50;;
38717;SDS011;24468;52.128;9.278;2023-05-14T08:52:07;3.17;;;2.33;;
38717;SDS011;24468;52.128;9.278;2023-05-14T08:54:34;2.72;;;1.90;;
38717;SDS011;24468;52.128;9.278;2023-05-14T08:56:59;3.63;;;2.28;;
38717;SDS011;24468;52.128;9.278;2023-05-14T08:59:26;3.95;;;2.80;;
38717;SDS011;24468;52.128;9.278;2023-05-14T09:01:52;3.72;;;2.30;;
38717;SDS011;24468;52.128;9.278;2023-05-14T09:04:21;3.08;;;2.30;;
38717;SDS011;24468;52.128;9.278;2023-05-14T09:06:49;2.35;;;2.10;;
38717;SDS011;24468;52.128;9.278;2023-05-14T09:09:20;2.90;;;2.33;;
38717;SDS011;24468;52.128;9.278;2023-05-14T09:11:50;2.38;;;1.63;;
38717;SDS011;24468;52.128;9.278;2023-05-14T09:14:17;2.63;;;2.42;;
38717;SDS011;24468;52.128;9.278;2023-05-14T09:16:44;2.90;;;2.35;;
38717;SDS011;24468;52.128;9.278;2023-05-14T09:19:11;2.70;;;2.50;;
38717;SDS011;24468;52.128;9.278;2023-05-14T09:21:37;2.22;;;2.03;;
38717;SDS011;24468;52.128;9.278;2023-05-14T09:24:04;2.78;;;2.58;;
38717;SDS011;24468;52.128;9.278;2023-05-14T09:26:31;2.50;;;2.30;;
38717;SDS011;24468;52.128;9.278;2023-05-14T09:28:58;2.22;;;2.03;;
38717;SDS011;24468;52.128;9.278;2023-05-14T09:31:29;2.58;;;2.38;;
38717;SDS011;24468;52.128;9.278;2023-05-14T09:33:56;3.10;;;2.50;;
38717;SDS011;24468;52.128;9.278;2023-05-14T09:36:23;2.28;;;2.08;;
38717;SDS011;24468;52.128;9.278;2023-05-14T09:38:50;3.40;;;2.25;;
38717;SDS011;24468;52.128;9.278;2023-05-14T09:41:16;3.15;;;1.95;;
38717;SDS011;24468;52.128;9.278;2023-05-14T09:43:43;2.33;;;2.08;;
38717;SDS011;24468;52.128;9.278;2023-05-14T09:46:08;2.92;;;1.98;;
38717;SDS011;24468;52.128;9.278;2023-05-14T09:48:34;2.50;;;1.90;;
38717;SDS011;24468;52.128;9.278;2023-05-14T09:50:59;2.13;;;2.00;;
38717;SDS011;24468;52.128;9.278;2023-05-14T09:53:25;2.30;;;1.95;;
38717;SDS011;24468;52.128;9.278;2023-05-14T09:55:51;2.90;;;2.35;;
38717;SDS011;24468;52.128;9.278;2023-05-14T09:58:16;2.65;;;1.70;;
38717;SDS011;24468;52.128;9.278;2023-05-14T10:00:43;1.92;;;1.83;;
38717;SDS011;24468;52.128;9.278;2023-05-14T10:03:12;1.58;;;1.40;;
38717;SDS011;24468;52.128;9.278;2023-05-14T10:05:39;1.98;;;1.80;;
38717;SDS011;24468;52.128;9.278;2023-05-14T10:08:13;2.15;;;1.83;;
38717;SDS011;24468;52.128;9.278;2023-05-14T10:10:50;3.83;;;1.85;;
38717;SDS011;24468;52.128;9.278;2023-05-14T10:13:19;1.85;;;1.75;;
38717;SDS011;24468;52.128;9.278;2023-05-14T10:18:30;2.67;;;1.95;;
38717;SDS011;24468;52.128;9.278;2023-05-14T10:21:03;2.35;;;2.13;;
38717;SDS011;24468;52.128;9.278;2023-05-14T10:23:30;2.15;;;1.38;;
38717;SDS011;24468;52.128;9.278;2023-05-14T10:25:56;2.47;;;1.60;;
38717;SDS011;24468;52.128;9.278;2023-05-14T10:28:23;2.17;;;1.63;;
38717;SDS011;24468;52.128;9.278;2023-05-14T10:30:49;2.33;;;1.60;;
38717;SDS011;24468;52.128;9.278;2023-05-14T10:33:15;2.10;;;1.95;;
38717;SDS011;24468;52.128;9.278;2023-05-14T10:38:34;2.95;;;2.42;;
38717;SDS011;24468;52.128;9.278;2023-05-14T10:41:05;2.35;;;2.15;;
38717;SDS011;24468;52.128;9.278;2023-05-14T10:43:36;4.13;;;2.00;;
38717;SDS011;24468;52.128;9.278;2023-05-14T10:46:04;2.20;;;2.00;;
38717;SDS011;24468;52.128;9.278;2023-05-14T10:48:31;2.10;;;1.90;;
38717;SDS011;24468;52.128;9.278;2023-05-14T10:50:58;1.63;;;1.52;;
38717;SDS011;24468;52.128;9.278;2023-05-14T10:53:35;2.35;;;2.15;;
38717;SDS011;24468;52.128;9.278;2023-05-14T10:56:06;2.37;;;1.53;;
38717;SDS011;24468;52.128;9.278;2023-05-14T10:58:40;1.83;;;1.63;;
38717;SDS011;24468;52.128;9.278;2023-05-14T11:01:09;2.63;;;2.42;;
38717;SDS011;24468;52.128;9.278;2023-05-14T11:03:42;3.55;;;2.40;;
38717;SDS011;24468;52.128;9.278;2023-05-14T11:06:10;2.30;;;2.10;;
38717;SDS011;24468;52.128;9.278;2023-05-14T11:08:38;3.85;;;3.25;;
38717;SDS011;24468;52.128;9.278;2023-05-14T11:11:07;2.58;;;2.38;;
38717;SDS011;24468;52.128;9.278;2023-05-14T11:13:34;2.17;;;1.98;;
38717;SDS011;24468;52.128;9.278;2023-05-14T11:16:00;2.30;;;2.10;;
38717;SDS011;24468;52.128;9.278;2023-05-14T11:18:31;2.20;;;1.85;;
38717;SDS011;24468;52.128;9.278;2023-05-14T11:21:00;5.03;;;2.67;;
38717;SDS011;24468;52.128;9.278;2023-05-14T11:23:27;1.85;;;1.65;;
38717;SDS011;24468;52.128;9.278;2023-05-14T11:25:53;2.15;;;1.95;;
38717;SDS011;24468;52.128;9.278;2023-05-14T11:28:20;2.08;;;1.88;;
38717;SDS011;24468;52.128;9.278;2023-05-14T11:30:51;2.35;;;2.05;;
38717;SDS011;24468;52.128;9.278;2023-05-14T11:33:18;2.10;;;1.85;;
38717;SDS011;24468;52.128;9.278;2023-05-14T11:35:44;2.53;;;1.98;;
38717;SDS011;24468;52.128;9.278;2023-05-14T11:38:15;3.33;;;2.30;;
38717;SDS011;24468;52.128;9.278;2023-05-14T11:40:51;2.40;;;2.20;;
38717;SDS011;24468;52.128;9.278;2023-05-14T11:43:21;2.28;;;2.08;;
38717;SDS011;24468;52.128;9.278;2023-05-14T11:45:52;3.03;;;2.30;;
38717;SDS011;24468;52.128;9.278;2023-05-14T11:48:19;2.55;;;2.25;;
38717;SDS011;24468;52.128;9.278;2023-05-14T11:50:49;3.55;;;2.30;;
38717;SDS011;24468;52.128;9.278;2023-05-14T11:53:17;5.00;;;2.60;;
38717;SDS011;24468;52.128;9.278;2023-05-14T11:55:50;2.50;;;2.30;;
38717;SDS011;24468;52.128;9.278;2023-05-14T11:58:22;2.67;;;2.15;;
38717;SDS011;24468;52.128;9.278;2023-05-14T12:00:51;2.67;;;2.30;;
38717;SDS011;24468;52.128;9.278;2023-05-14T12:03:19;2.55;;;2.35;;
38717;SDS011;24468;52.128;9.278;2023-05-14T12:05:56;6.00;;;2.63;;
38717;SDS011;24468;52.128;9.278;2023-05-14T12:08:30;2.90;;;2.63;;
38717;SDS011;24468;52.128;9.278;2023-05-14T12:10:57;3.22;;;2.75;;
38717;SDS011;24468;52.128;9.278;2023-05-14T12:13:33;5.63;;;2.40;;
38717;SDS011;24468;52.128;9.278;2023-05-14T12:16:01;2.65;;;2.45;;
38717;SDS011;24468;52.128;9.278;2023-05-14T12:18:30;2.58;;;2.38;;
38717;SDS011;24468;52.128;9.278;2023-05-14T12:21:02;2.42;;;2.22;;
38717;SDS011;24468;52.128;9.278;2023-05-14T12:23:29;2.60;;;2.40;;
38717;SDS011;24468;52.128;9.278;2023-05-14T12:26:03;1.98;;;1.88;;
38717;SDS011;24468;52.128;9.278;2023-05-14T12:28:30;2.85;;;2.38;;
38717;SDS011;24468;52.128;9.278;2023-05-14T12:30:56;2.70;;;2.50;;
38717;SDS011;24468;52.128;9.278;2023-05-14T12:33:24;2.80;;;2.42;;
38717;SDS011;24468;52.128;9.278;2023-05-14T12:35:51;4.43;;;2.40;;
38717;SDS011;24468;52.128;9.278;2023-05-14T12:38:18;3.17;;;2.30;;
38717;SDS011;24468;52.128;9.278;2023-05-14T12:40:44;6.03;;;2.60;;
38717;SDS011;24468;52.128;9.278;2023-05-14T12:43:09;5.45;;;2.50;;
38717;SDS011;24468;52.128;9.278;2023-05-14T12:45:35;2.58;;;2.20;;
38717;SDS011;24468;52.128;9.278;2023-05-14T12:48:01;2.97;;;2.20;;
38717;SDS011;24468;52.128;9.278;2023-05-14T12:50:26;4.38;;;2.30;;
38717;SDS011;24468;52.128;9.278;2023-05-14T12:52:52;4.07;;;2.28;;
38717;SDS011;24468;52.128;9.278;2023-05-14T12:55:17;3.72;;;2.60;;
38717;SDS011;24468;52.128;9.278;2023-05-14T12:57:43;2.70;;;2.50;;
38717;SDS011;24468;52.128;9.278;2023-05-14T13:00:08;6.93;;;2.70;;
38717;SDS011;24468;52.128;9.278;2023-05-14T13:02:35;4.57;;;2.92;;
38717;SDS011;24468;52.128;9.278;2023-05-14T13:05:00;3.88;;;2.30;;
38717;SDS011;24468;52.128;9.278;2023-05-14T13:07:27;2.92;;;2.60;;
38717;SDS011;24468;52.128;9.278;2023-05-14T13:09:55;2.53;;;2.30;;
38717;SDS011;24468;52.128;9.278;2023-05-14T13:12:24;4.80;;;2.80;;
38717;SDS011;24468;52.128;9.278;2023-05-14T13:14:50;3.83;;;2.67;;
38717;SDS011;24468;52.128;9.278;2023-05-14T13:17:16;2.47;;;2.28;;
38717;SDS011;24468;52.128;9.278;2023-05-14T13:19:41;2.85;;;2.53;;
38717;SDS011;24468;52.128;9.278;2023-05-14T13:22:07;3.00;;;2.42;;
38717;SDS011;24468;52.128;9.278;2023-05-14T13:24:32;5.55;;;2.78;;
38717;SDS011;24468;52.128;9.278;2023-05-14T13:26:58;3.30;;;3.00;;
38717;SDS011;24468;52.128;9.278;2023-05-14T13:29:24;2.60;;;2.40;;
38717;SDS011;24468;52.128;9.278;2023-05-14T13:31:53;3.83;;;2.67;;
38717;SDS011;24468;52.128;9.278;2023-05-14T13:34:18;3.10;;;2.88;;
38717;SDS011;24468;52.128;9.278;2023-05-14T13:36:44;3.88;;;2.42;;
38717;SDS011;24468;52.128;9.278;2023-05-14T13:39:11;2.72;;;2.53;;
38717;SDS011;24468;52.128;9.278;2023-05-14T13:41:36;3.30;;;2.65;;
38717;SDS011;24468;52.128;9.278;2023-05-14T13:44:02;2.90;;;2.70;;
38717;SDS011;24468;52.128;9.278;2023-05-14T13:46:28;3.42;;;3.13;;
38717;SDS011;24468;52.128;9.278;2023-05-14T13:48:54;2.78;;;2.58;;
38717;SDS011;24468;52.128;9.278;2023-05-14T13:51:20;3.03;;;2.72;;
38717;SDS011;24468;52.128;9.278;2023-05-14T13:53:46;2.80;;;2.42;;
38717;SDS011;24468;52.128;9.278;2023-05-14T13:56:12;4.05;;;3.22;;
38717;SDS011;24468;52.128;9.278;2023-05-14T13:58:37;3.35;;;3.00;;
38717;SDS011;24468;52.128;9.278;2023-05-14T14:01:03;3.95;;;2.67;;
38717;SDS011;24468;52.128;9.278;2023-05-14T14:03:29;5.63;;;2.90;;
38717;SDS011;24468;52.128;9.278;2023-05-14T14:05:54;7.45;;;3.53;;
38717;SDS011;24468;52.128;9.278;2023-05-14T14:08:20;3.42;;;3.10;;
38717;SDS011;24468;52.128;9.278;2023-05-14T14:10:45;3.30;;;3.00;;
38717;SDS011;24468;52.128;9.278;2023-05-14T14:13:11;3.50;;;3.08;;
38717;SDS011;24468;52.128;9.278;2023-05-14T14:15:37;3.75;;;2.80;;
38717;SDS011;24468;52.128;9.278;2023-05-14T14:18:02;3.33;;;3.03;;
38717;SDS011;24468;52.128;9.278;2023-05-14T14:20:28;4.78;;;2.42;;
38717;SDS011;24468;52.128;9.278;2023-05-14T14:22:55;4.32;;;3.13;;
38717;SDS011;24468;52.128;9.278;2023-05-14T14:25:20;6.65;;;2.88;;
38717;SDS011;24468;52.128;9.278;2023-05-14T14:27:46;5.38;;;3.28;;
38717;SDS011;24468;52.128;9.278;2023-05-14T14:30:11;3.22;;;2.75;;
38717;SDS011;24468;52.128;9.278;2023-05-14T14:32:44;3.97;;;2.88;;
38717;SDS011;24468;52.128;9.278;2023-05-14T14:35:11;3.05;;;2.80;;
38717;SDS011;24468;52.128;9.278;2023-05-14T14:37:39;5.13;;;2.78;;
38717;SDS011;24468;52.128;9.278;2023-05-14T14:40:07;3.80;;;2.85;;
38717;SDS011;24468;52.128;9.278;2023-05-14T14:42:34;5.28;;;2.97;;
38717;SDS011;24468;52.128;9.278;2023-05-14T14:45:01;4.07;;;3.00;;
38717;SDS011;24468;52.128;9.278;2023-05-14T14:47:31;3.92;;;3.03;;
38717;SDS011;24468;52.128;9.278;2023-05-14T14:49:57;4.07;;;2.63;;
38717;SDS011;24468;52.128;9.278;2023-05-14T14:52:23;4.53;;;2.58;;
38717;SDS011;24468;52.128;9.278;2023-05-14T14:54:50;3.22;;;2.70;;
38717;SDS011;24468;52.128;9.278;2023-05-14T14:57:15;3.63;;;2.67;;
38717;SDS011;24468;52.128;9.278;2023-05-14T14:59:41;5.03;;;2.75;;